sensor_id;sensor_type;location;lat;lon;timestamp;P1;durP1;ratioP1;P2;durP2;ratioP2
14143;SDS011;7152;48.348;10.980;2022-10-13T00:00:37;52.50;;;22.67;;
14143;SDS011;7152;48.348;10.980;2022-10-13T00:03:04;60.60;;;22.50;;
14143;SDS011;7152;48.348;10.980;2022-10-13T00:05:29;54.57;;;23.10;;
14143;SDS011;7152;48.348;10.980;2022-10-13T00:07:56;52.77;;;21.40;;
14143;SDS011;7152;48.348;10.980;2022-10-13T00:10:22;85.07;;;23.23;;
14143;SDS011;7152;48.348;10.980;2022-10-13T00:12:48;46.80;;;22.03;;
14143;SDS011;7152;48.348;10.980;2022-10-13T00:15:14;108.37;;;24.00;;
14143;SDS011;7152;48.348;10.980;2022-10-13T00:17:40;58.03;;;23.47;;
14143;SDS011;7152;48.348;10.980;2022-10-13T00:20:06;61.17;;;23.27;;
14143;SDS011;7152;48.348;10.980;2022-10-13T00:22:33;51.27;;;22.30;;
14143;SDS011;7152;48.348;10.980;2022-10-13T00:24:58;62.83;;;22.33;;
14143;SDS011;7152;48.348;10.980;2022-10-13T00:27:24;66.97;;;22.40;;
14143;SDS011;7152;48.348;10.980;2022-10-13T00:29:50;64.83;;;20.83;;
14143;SDS011;7152;48.348;10.980;2022-10-13T00:32:16;80.90;;;24.03;;
14143;SDS011;7152;48.348;10.980;2022-10-13T00:34:41;71.17;;;21.10;;
14143;SDS011;7152;48.348;10.980;2022-10-13T00:37:07;51.43;;;20.43;;
14143;SDS011;7152;48.348;10.980;2022-10-13T00:39:33;51.97;;;20.13;;
14143;SDS011;7152;48.348;10.980;2022-10-13T00:42:00;46.40;;;18.43;;
14143;SDS011;7152;48.348;10.980;2022-10-13T00:45:13;77.37;;;22.13;;
14143;SDS011;7152;48.348;10.980;2022-10-13T00:47:24;37.07;;;18.80;;
14143;SDS011;7152;48.348;10.980;2022-10-13T00:49:56;33.90;;;17.37;;
14143;SDS011;7152;48.348;10.980;2022-10-13T00:52:23;42.10;;;18.80;;
14143;SDS011;7152;48.348;10.980;2022-10-13T00:54:50;40.43;;;17.70;;
14143;SDS011;7152;48.348;10.980;2022-10-13T00:57:17;37.53;;;16.23;;
14143;SDS011;7152;48.348;10.980;2022-10-13T00:59:44;36.10;;;16.20;;
14143;SDS011;7152;48.348;10.980;2022-10-13T01:02:11;46.70;;;15.87;;
14143;SDS011;7152;48.348;10.980;2022-10-13T01:04:38;51.27;;;16.57;;
14143;SDS011;7152;48.348;10.980;2022-10-13T01:07:07;55.63;;;16.90;;
14143;SDS011;7152;48.348;10.980;2022-10-13T01:09:33;50.77;;;16.77;;
14143;SDS011;7152;48.348;10.980;2022-10-13T01:12:07;29.37;;;15.63;;
14143;SDS011;7152;48.348;10.980;2022-10-13T01:14:48;25.23;;;15.33;;
14143;SDS011;7152;48.348;10.980;2022-10-13T01:23:05;43.47;;;15.87;;
14143;SDS011;7152;48.348;10.980;2022-10-13T01:26:03;56.77;;;16.73;;
14143;SDS011;7152;48.348;10.980;2022-10-13T01:28:59;42.67;;;15.33;;
14143;SDS011;7152;48.348;10.980;2022-10-13T01:34:10;64.27;;;15.67;;
14143;SDS011;7152;48.348;10.980;2022-10-13T01:39:41;37.80;;;14.73;;
14143;SDS011;7152;48.348;10.980;2022-10-13T01:42:14;35.10;;;15.83;;
14143;SDS011;7152;48.348;10.980;2022-10-13T01:45:20;70.03;;;15.80;;
14143;SDS011;7152;48.348;10.980;2022-10-13T01:47:49;46.33;;;15.83;;
14143;SDS011;7152;48.348;10.980;2022-10-13T01:50:17;38.73;;;15.90;;
14143;SDS011;7152;48.348;10.980;2022-10-13T01:52:44;61.93;;;16.20;;
14143;SDS011;7152;48.348;10.980;2022-10-13T01:55:12;43.37;;;17.47;;
14143;SDS011;7152;48.348;10.980;2022-10-13T01:57:39;45.53;;;16.27;;
14143;SDS011;7152;48.348;10.980;2022-10-13T02:03:01;36.70;;;15.97;;
14143;SDS011;7152;48.348;10.980;2022-10-13T02:13:21;25.03;;;16.27;;
14143;SDS011;7152;48.348;10.980;2022-10-13T02:15:50;46.43;;;17.57;;
14143;SDS011;7152;48.348;10.980;2022-10-13T02:18:20;39.27;;;17.07;;
14143;SDS011;7152;48.348;10.980;2022-10-13T02:20:50;60.23;;;17.40;;
14143;SDS011;7152;48.348;10.980;2022-10-13T02:23:16;38.33;;;17.43;;
14143;SDS011;7152;48.348;10.980;2022-10-13T02:25:43;33.17;;;16.10;;
14143;SDS011;7152;48.348;10.980;2022-10-13T02:28:10;42.93;;;16.43;;
14143;SDS011;7152;48.348;10.980;2022-10-13T02:30:38;40.70;;;16.13;;
14143;SDS011;7152;48.348;10.980;2022-10-13T02:33:05;23.77;;;15.20;;
14143;SDS011;7152;48.348;10.980;2022-10-13T02:35:32;33.13;;;17.13;;
14143;SDS011;7152;48.348;10.980;2022-10-13T02:37:58;34.37;;;17.07;;
14143;SDS011;7152;48.348;10.980;2022-10-13T02:40:24;41.73;;;15.50;;
14143;SDS011;7152;48.348;10.980;2022-10-13T02:42:51;22.60;;;15.33;;
14143;SDS011;7152;48.348;10.980;2022-10-13T02:45:16;22.70;;;15.63;;
14143;SDS011;7152;48.348;10.980;2022-10-13T02:47:42;18.43;;;15.17;;
14143;SDS011;7152;48.348;10.980;2022-10-13T02:50:08;17.80;;;15.53;;
14143;SDS011;7152;48.348;10.980;2022-10-13T02:52:34;25.37;;;16.07;;
14143;SDS011;7152;48.348;10.980;2022-10-13T02:54:59;18.50;;;15.70;;
14143;SDS011;7152;48.348;10.980;2022-10-13T02:57:25;17.17;;;14.40;;
14143;SDS011;7152;48.348;10.980;2022-10-13T02:59:51;20.87;;;15.70;;
14143;SDS011;7152;48.348;10.980;2022-10-13T03:02:16;17.13;;;15.30;;
14143;SDS011;7152;48.348;10.980;2022-10-13T03:04:42;16.83;;;14.77;;
14143;SDS011;7152;48.348;10.980;2022-10-13T03:07:08;19.30;;;15.40;;
14143;SDS011;7152;48.348;10.980;2022-10-13T03:09:34;22.67;;;15.40;;
14143;SDS011;7152;48.348;10.980;2022-10-13T03:12:00;20.80;;;15.77;;
14143;SDS011;7152;48.348;10.980;2022-10-13T03:14:26;21.43;;;14.97;;
14143;SDS011;7152;48.348;10.980;2022-10-13T03:16:51;20.03;;;15.90;;
14143;SDS011;7152;48.348;10.980;2022-10-13T03:19:17;18.30;;;14.43;;
14143;SDS011;7152;48.348;10.980;2022-10-13T03:21:42;21.07;;;16.07;;
14143;SDS011;7152;48.348;10.980;2022-10-13T03:24:08;22.30;;;15.93;;
14143;SDS011;7152;48.348;10.980;2022-10-13T03:26:34;20.03;;;15.90;;
14143;SDS011;7152;48.348;10.980;2022-10-13T03:29:00;16.97;;;15.27;;
14143;SDS011;7152;48.348;10.980;2022-10-13T03:31:26;17.00;;;15.20;;
14143;SDS011;7152;48.348;10.980;2022-10-13T03:33:51;19.60;;;15.80;;
14143;SDS011;7152;48.348;10.980;2022-10-13T03:36:17;18.97;;;16.00;;
14143;SDS011;7152;48.348;10.980;2022-10-13T03:38:43;17.47;;;15.33;;
14143;SDS011;7152;48.348;10.980;2022-10-13T03:41:16;17.30;;;15.50;;
14143;SDS011;7152;48.348;10.980;2022-10-13T03:43:42;16.20;;;14.53;;
14143;SDS011;7152;48.348;10.980;2022-10-13T03:46:09;16.20;;;14.57;;
14143;SDS011;7152;48.348;10.980;2022-10-13T03:48:37;17.73;;;15.30;;
14143;SDS011;7152;48.348;10.980;2022-10-13T03:51:04;17.57;;;15.67;;
14143;SDS011;7152;48.348;10.980;2022-10-13T03:53:31;15.77;;;14.17;;
14143;SDS011;7152;48.348;10.980;2022-10-13T03:55:57;17.33;;;15.13;;
14143;SDS011;7152;48.348;10.980;2022-10-13T03:58:23;17.67;;;15.87;;
14143;SDS011;7152;48.348;10.980;2022-10-13T04:00:49;17.00;;;15.07;;
14143;SDS011;7152;48.348;10.980;2022-10-13T04:03:17;17.47;;;15.77;;
14143;SDS011;7152;48.348;10.980;2022-10-13T04:05:43;17.67;;;15.63;;
14143;SDS011;7152;48.348;10.980;2022-10-13T04:08:08;17.90;;;16.00;;
14143;SDS011;7152;48.348;10.980;2022-10-13T04:10:35;17.47;;;15.80;;
14143;SDS011;7152;48.348;10.980;2022-10-13T04:13:01;16.77;;;15.07;;
14143;SDS011;7152;48.348;10.980;2022-10-13T04:15:26;16.87;;;15.17;;
14143;SDS011;7152;48.348;10.980;2022-10-13T04:17:52;17.40;;;15.37;;
14143;SDS011;7152;48.348;10.980;2022-10-13T04:20:18;16.80;;;15.10;;
14143;SDS011;7152;48.348;10.980;2022-10-13T04:22:43;16.20;;;14.60;;
14143;SDS011;7152;48.348;10.980;2022-10-13T04:25:09;16.90;;;15.13;;
14143;SDS011;7152;48.348;10.980;2022-10-13T04:27:35;17.70;;;15.90;;
14143;SDS011;7152;48.348;10.980;2022-10-13T04:30:05;17.23;;;15.33;;
14143;SDS011;7152;48.348;10.980;2022-10-13T04:32:31;16.17;;;14.47;;
14143;SDS011;7152;48.348;10.980;2022-10-13T04:34:57;16.17;;;14.67;;
14143;SDS011;7152;48.348;10.980;2022-10-13T04:37:23;16.30;;;14.60;;
14143;SDS011;7152;48.348;10.980;2022-10-13T04:39:49;17.17;;;15.47;;
14143;SDS011;7152;48.348;10.980;2022-10-13T04:42:15;17.30;;;15.63;;
14143;SDS011;7152;48.348;10.980;2022-10-13T04:44:40;15.93;;;14.23;;
14143;SDS011;7152;48.348;10.980;2022-10-13T04:47:06;17.30;;;15.50;;
14143;SDS011;7152;48.348;10.980;2022-10-13T04:49:32;17.40;;;15.77;;
14143;SDS011;7152;48.348;10.980;2022-10-13T04:51:58;16.87;;;15.17;;
14143;SDS011;7152;48.348;10.980;2022-10-13T04:54:24;17.33;;;15.53;;
14143;SDS011;7152;48.348;10.980;2022-10-13T04:56:49;18.33;;;16.27;;
14143;SDS011;7152;48.348;10.980;2022-10-13T04:59:15;16.00;;;14.50;;
14143;SDS011;7152;48.348;10.980;2022-10-13T05:01:41;16.67;;;15.00;;
14143;SDS011;7152;48.348;10.980;2022-10-13T05:04:06;15.97;;;14.37;;
14143;SDS011;7152;48.348;10.980;2022-10-13T05:06:34;15.57;;;14.13;;
14143;SDS011;7152;48.348;10.980;2022-10-13T05:09:02;15.57;;;14.07;;
14143;SDS011;7152;48.348;10.980;2022-10-13T05:11:28;15.97;;;14.23;;
14143;SDS011;7152;48.348;10.980;2022-10-13T05:13:55;15.60;;;14.10;;
14143;SDS011;7152;48.348;10.980;2022-10-13T05:16:21;15.87;;;14.20;;
14143;SDS011;7152;48.348;10.980;2022-10-13T05:18:48;15.87;;;14.30;;
14143;SDS011;7152;48.348;10.980;2022-10-13T05:21:16;15.60;;;14.10;;
14143;SDS011;7152;48.348;10.980;2022-10-13T05:23:43;18.77;;;16.87;;
14143;SDS011;7152;48.348;10.980;2022-10-13T05:26:14;17.43;;;15.13;;
14143;SDS011;7152;48.348;10.980;2022-10-13T05:28:41;18.50;;;16.63;;
14143;SDS011;7152;48.348;10.980;2022-10-13T05:33:46;16.30;;;14.63;;
14143;SDS011;7152;48.348;10.980;2022-10-13T05:36:14;16.27;;;14.57;;
14143;SDS011;7152;48.348;10.980;2022-10-13T05:38:41;17.27;;;15.47;;
14143;SDS011;7152;48.348;10.980;2022-10-13T05:41:08;19.53;;;15.50;;
14143;SDS011;7152;48.348;10.980;2022-10-13T05:43:35;17.20;;;15.30;;
14143;SDS011;7152;48.348;10.980;2022-10-13T05:46:02;17.17;;;15.47;;
14143;SDS011;7152;48.348;10.980;2022-10-13T05:48:28;18.10;;;16.37;;
14143;SDS011;7152;48.348;10.980;2022-10-13T05:50:54;18.37;;;16.43;;
14143;SDS011;7152;48.348;10.980;2022-10-13T05:53:23;17.70;;;15.87;;
14143;SDS011;7152;48.348;10.980;2022-10-13T05:55:52;18.83;;;16.53;;
14143;SDS011;7152;48.348;10.980;2022-10-13T05:58:20;18.33;;;16.33;;
14143;SDS011;7152;48.348;10.980;2022-10-13T06:00:46;19.03;;;17.03;;
14143;SDS011;7152;48.348;10.980;2022-10-13T06:03:14;19.97;;;17.70;;
14143;SDS011;7152;48.348;10.980;2022-10-13T06:05:43;21.27;;;17.70;;
14143;SDS011;7152;48.348;10.980;2022-10-13T06:08:12;20.37;;;18.20;;
14143;SDS011;7152;48.348;10.980;2022-10-13T06:10:41;20.47;;;17.60;;
14143;SDS011;7152;48.348;10.980;2022-10-13T06:13:07;20.73;;;17.87;;
14143;SDS011;7152;48.348;10.980;2022-10-13T06:15:33;21.57;;;17.43;;
14143;SDS011;7152;48.348;10.980;2022-10-13T06:17:59;19.10;;;17.10;;
14143;SDS011;7152;48.348;10.980;2022-10-13T06:20:25;17.83;;;16.03;;
14143;SDS011;7152;48.348;10.980;2022-10-13T06:22:54;20.70;;;17.70;;
14143;SDS011;7152;48.348;10.980;2022-10-13T06:25:20;19.43;;;17.37;;
14143;SDS011;7152;48.348;10.980;2022-10-13T06:27:45;20.10;;;16.67;;
14143;SDS011;7152;48.348;10.980;2022-10-13T06:30:11;19.27;;;17.27;;
14143;SDS011;7152;48.348;10.980;2022-10-13T06:32:37;18.70;;;16.77;;
14143;SDS011;7152;48.348;10.980;2022-10-13T06:35:03;20.50;;;18.40;;
14143;SDS011;7152;48.348;10.980;2022-10-13T06:37:30;20.57;;;18.43;;
14143;SDS011;7152;48.348;10.980;2022-10-13T06:39:55;20.50;;;17.80;;
14143;SDS011;7152;48.348;10.980;2022-10-13T06:42:21;21.97;;;17.43;;
14143;SDS011;7152;48.348;10.980;2022-10-13T06:44:47;22.20;;;17.70;;
14143;SDS011;7152;48.348;10.980;2022-10-13T06:47:12;18.90;;;16.87;;
14143;SDS011;7152;48.348;10.980;2022-10-13T06:49:38;20.93;;;17.57;;
14143;SDS011;7152;48.348;10.980;2022-10-13T06:52:04;19.63;;;16.80;;
14143;SDS011;7152;48.348;10.980;2022-10-13T06:54:30;23.40;;;18.17;;
14143;SDS011;7152;48.348;10.980;2022-10-13T06:56:55;20.13;;;17.23;;
14143;SDS011;7152;48.348;10.980;2022-10-13T06:59:21;20.20;;;17.87;;
14143;SDS011;7152;48.348;10.980;2022-10-13T07:01:47;20.20;;;18.03;;
14143;SDS011;7152;48.348;10.980;2022-10-13T07:04:13;21.47;;;17.90;;
14143;SDS011;7152;48.348;10.980;2022-10-13T07:06:39;23.17;;;18.00;;
14143;SDS011;7152;48.348;10.980;2022-10-13T07:09:05;21.60;;;18.50;;
14143;SDS011;7152;48.348;10.980;2022-10-13T07:11:31;20.33;;;18.13;;
14143;SDS011;7152;48.348;10.980;2022-10-13T07:13:58;20.50;;;18.07;;
14143;SDS011;7152;48.348;10.980;2022-10-13T07:16:24;22.60;;;18.97;;
14143;SDS011;7152;48.348;10.980;2022-10-13T07:18:50;22.20;;;18.67;;
14143;SDS011;7152;48.348;10.980;2022-10-13T07:21:15;20.23;;;18.03;;
14143;SDS011;7152;48.348;10.980;2022-10-13T07:23:41;20.37;;;17.30;;
14143;SDS011;7152;48.348;10.980;2022-10-13T07:26:07;22.20;;;18.47;;
14143;SDS011;7152;48.348;10.980;2022-10-13T07:28:35;22.00;;;18.83;;
14143;SDS011;7152;48.348;10.980;2022-10-13T07:31:05;23.07;;;19.10;;
14143;SDS011;7152;48.348;10.980;2022-10-13T07:33:32;26.43;;;20.97;;
14143;SDS011;7152;48.348;10.980;2022-10-13T07:35:58;33.87;;;29.33;;
14143;SDS011;7152;48.348;10.980;2022-10-13T07:38:23;33.90;;;26.13;;
14143;SDS011;7152;48.348;10.980;2022-10-13T07:40:49;27.63;;;24.33;;
14143;SDS011;7152;48.348;10.980;2022-10-13T07:43:14;25.80;;;23.07;;
14143;SDS011;7152;48.348;10.980;2022-10-13T07:45:40;22.93;;;19.87;;
14143;SDS011;7152;48.348;10.980;2022-10-13T07:48:06;23.03;;;20.13;;
14143;SDS011;7152;48.348;10.980;2022-10-13T07:50:31;19.93;;;17.90;;
14143;SDS011;7152;48.348;10.980;2022-10-13T07:52:57;23.10;;;18.80;;
14143;SDS011;7152;48.348;10.980;2022-10-13T07:55:23;22.90;;;19.03;;
14143;SDS011;7152;48.348;10.980;2022-10-13T07:57:49;21.57;;;19.27;;
14143;SDS011;7152;48.348;10.980;2022-10-13T08:00:14;24.53;;;19.07;;
14143;SDS011;7152;48.348;10.980;2022-10-13T08:02:40;23.67;;;20.03;;
14143;SDS011;7152;48.348;10.980;2022-10-13T08:05:06;23.77;;;20.83;;
14143;SDS011;7152;48.348;10.980;2022-10-13T08:07:32;25.10;;;20.67;;
14143;SDS011;7152;48.348;10.980;2022-10-13T08:09:57;24.43;;;20.87;;
14143;SDS011;7152;48.348;10.980;2022-10-13T08:12:23;23.07;;;18.53;;
14143;SDS011;7152;48.348;10.980;2022-10-13T08:14:49;22.30;;;18.73;;
14143;SDS011;7152;48.348;10.980;2022-10-13T08:17:15;25.07;;;19.73;;
14143;SDS011;7152;48.348;10.980;2022-10-13T08:19:41;22.50;;;20.10;;
14143;SDS011;7152;48.348;10.980;2022-10-13T08:22:08;25.47;;;20.33;;
14143;SDS011;7152;48.348;10.980;2022-10-13T08:24:34;24.10;;;20.43;;
14143;SDS011;7152;48.348;10.980;2022-10-13T08:27:00;20.97;;;18.83;;
14143;SDS011;7152;48.348;10.980;2022-10-13T08:29:26;25.53;;;19.47;;
14143;SDS011;7152;48.348;10.980;2022-10-13T08:31:52;22.57;;;19.33;;
14143;SDS011;7152;48.348;10.980;2022-10-13T08:34:18;23.97;;;19.90;;
14143;SDS011;7152;48.348;10.980;2022-10-13T08:36:44;22.53;;;19.40;;
14143;SDS011;7152;48.348;10.980;2022-10-13T08:39:10;23.97;;;20.30;;
14143;SDS011;7152;48.348;10.980;2022-10-13T08:41:37;23.17;;;20.17;;
14143;SDS011;7152;48.348;10.980;2022-10-13T08:46:53;24.40;;;19.77;;
14143;SDS011;7152;48.348;10.980;2022-10-13T08:49:21;25.87;;;21.33;;
14143;SDS011;7152;48.348;10.980;2022-10-13T08:51:47;23.90;;;20.27;;
14143;SDS011;7152;48.348;10.980;2022-10-13T08:54:13;27.77;;;20.33;;
14143;SDS011;7152;48.348;10.980;2022-10-13T08:56:41;28.50;;;21.13;;
14143;SDS011;7152;48.348;10.980;2022-10-13T08:59:12;25.63;;;21.27;;
14143;SDS011;7152;48.348;10.980;2022-10-13T09:01:41;25.10;;;20.33;;
14143;SDS011;7152;48.348;10.980;2022-10-13T09:09:44;24.53;;;19.67;;
14143;SDS011;7152;48.348;10.980;2022-10-13T09:12:13;27.07;;;23.67;;
14143;SDS011;7152;48.348;10.980;2022-10-13T09:14:39;25.67;;;22.87;;
14143;SDS011;7152;48.348;10.980;2022-10-13T09:17:21;25.30;;;20.40;;
14143;SDS011;7152;48.348;10.980;2022-10-13T09:20:35;25.53;;;19.67;;
14143;SDS011;7152;48.348;10.980;2022-10-13T09:22:41;25.13;;;20.87;;
14143;SDS011;7152;48.348;10.980;2022-10-13T09:27:44;22.33;;;18.47;;
14143;SDS011;7152;48.348;10.980;2022-10-13T09:30:26;23.07;;;18.20;;
14143;SDS011;7152;48.348;10.980;2022-10-13T09:33:06;39.77;;;30.03;;
14143;SDS011;7152;48.348;10.980;2022-10-13T09:36:04;58.13;;;44.33;;
14143;SDS011;7152;48.348;10.980;2022-10-13T09:38:42;24.67;;;21.63;;
14143;SDS011;7152;48.348;10.980;2022-10-13T09:41:13;31.47;;;28.23;;
14143;SDS011;7152;48.348;10.980;2022-10-13T09:48:52;20.57;;;16.63;;
14143;SDS011;7152;48.348;10.980;2022-10-13T09:51:34;20.33;;;16.77;;
14143;SDS011;7152;48.348;10.980;2022-10-13T09:54:23;22.80;;;15.53;;
14143;SDS011;7152;48.348;10.980;2022-10-13T09:59:40;18.13;;;14.07;;
14143;SDS011;7152;48.348;10.980;2022-10-13T10:02:26;16.03;;;13.33;;
14143;SDS011;7152;48.348;10.980;2022-10-13T10:04:55;17.17;;;13.67;;
14143;SDS011;7152;48.348;10.980;2022-10-13T10:07:26;16.60;;;13.20;;
14143;SDS011;7152;48.348;10.980;2022-10-13T10:09:56;17.20;;;13.40;;
14143;SDS011;7152;48.348;10.980;2022-10-13T10:12:29;15.13;;;12.47;;
14143;SDS011;7152;48.348;10.980;2022-10-13T10:14:58;19.70;;;13.33;;
14143;SDS011;7152;48.348;10.980;2022-10-13T10:17:47;16.03;;;12.90;;
14143;SDS011;7152;48.348;10.980;2022-10-13T10:20:39;14.17;;;12.70;;
14143;SDS011;7152;48.348;10.980;2022-10-13T10:26:04;15.33;;;11.33;;
14143;SDS011;7152;48.348;10.980;2022-10-13T10:28:54;16.00;;;11.33;;
14143;SDS011;7152;48.348;10.980;2022-10-13T10:44:48;11.87;;;10.17;;
14143;SDS011;7152;48.348;10.980;2022-10-13T10:47:24;13.97;;;9.63;;
14143;SDS011;7152;48.348;10.980;2022-10-13T10:49:59;11.97;;;9.33;;
14143;SDS011;7152;48.348;10.980;2022-10-13T10:52:35;15.37;;;9.77;;
14143;SDS011;7152;48.348;10.980;2022-10-13T10:58:07;12.10;;;9.47;;
14143;SDS011;7152;48.348;10.980;2022-10-13T11:03:57;11.03;;;8.33;;
14143;SDS011;7152;48.348;10.980;2022-10-13T11:06:45;11.50;;;8.90;;
14143;SDS011;7152;48.348;10.980;2022-10-13T11:09:11;10.03;;;8.07;;
14143;SDS011;7152;48.348;10.980;2022-10-13T11:11:37;10.43;;;8.67;;
14143;SDS011;7152;48.348;10.980;2022-10-13T11:16:34;10.77;;;8.83;;
14143;SDS011;7152;48.348;10.980;2022-10-13T11:33:05;12.07;;;8.50;;
14143;SDS011;7152;48.348;10.980;2022-10-13T11:40:32;14.23;;;9.63;;
14143;SDS011;7152;48.348;10.980;2022-10-13T11:56:45;14.20;;;10.50;;
14143;SDS011;7152;48.348;10.980;2022-10-13T11:59:20;12.43;;;9.50;;
14143;SDS011;7152;48.348;10.980;2022-10-13T12:01:46;12.40;;;9.53;;
14143;SDS011;7152;48.348;10.980;2022-10-13T12:04:12;12.77;;;9.70;;
14143;SDS011;7152;48.348;10.980;2022-10-13T12:06:39;9.87;;;8.47;;
14143;SDS011;7152;48.348;10.980;2022-10-13T12:09:13;12.43;;;9.10;;
14143;SDS011;7152;48.348;10.980;2022-10-13T12:11:41;12.13;;;10.17;;
14143;SDS011;7152;48.348;10.980;2022-10-13T12:14:23;9.43;;;8.53;;
14143;SDS011;7152;48.348;10.980;2022-10-13T12:16:54;9.80;;;8.70;;
14143;SDS011;7152;48.348;10.980;2022-10-13T12:19:22;11.13;;;9.77;;
14143;SDS011;7152;48.348;10.980;2022-10-13T12:21:52;10.83;;;9.37;;
14143;SDS011;7152;48.348;10.980;2022-10-13T12:24:23;14.17;;;9.60;;
14143;SDS011;7152;48.348;10.980;2022-10-13T12:26:50;12.43;;;9.70;;
14143;SDS011;7152;48.348;10.980;2022-10-13T12:29:16;11.23;;;9.33;;
14143;SDS011;7152;48.348;10.980;2022-10-13T12:31:46;13.50;;;8.63;;
14143;SDS011;7152;48.348;10.980;2022-10-13T12:36:42;12.30;;;9.23;;
14143;SDS011;7152;48.348;10.980;2022-10-13T12:39:11;12.60;;;8.43;;
14143;SDS011;7152;48.348;10.980;2022-10-13T12:41:42;10.47;;;8.50;;
14143;SDS011;7152;48.348;10.980;2022-10-13T12:44:14;9.93;;;8.37;;
14143;SDS011;7152;48.348;10.980;2022-10-13T12:46:50;11.40;;;8.63;;
14143;SDS011;7152;48.348;10.980;2022-10-13T12:52:33;11.23;;;8.20;;
14143;SDS011;7152;48.348;10.980;2022-10-13T12:54:54;11.03;;;9.00;;
14143;SDS011;7152;48.348;10.980;2022-10-13T12:57:21;11.40;;;8.47;;
14143;SDS011;7152;48.348;10.980;2022-10-13T13:00:43;11.53;;;8.77;;
14143;SDS011;7152;48.348;10.980;2022-10-13T13:02:55;11.83;;;9.10;;
14143;SDS011;7152;48.348;10.980;2022-10-13T13:05:34;11.63;;;9.33;;
14143;SDS011;7152;48.348;10.980;2022-10-13T13:08:01;12.50;;;9.60;;
14143;SDS011;7152;48.348;10.980;2022-10-13T13:10:28;13.40;;;9.50;;
14143;SDS011;7152;48.348;10.980;2022-10-13T13:12:55;16.50;;;10.17;;
14143;SDS011;7152;48.348;10.980;2022-10-13T13:15:36;14.70;;;9.57;;
14143;SDS011;7152;48.348;10.980;2022-10-13T13:20:46;13.67;;;10.23;;
14143;SDS011;7152;48.348;10.980;2022-10-13T13:23:12;14.10;;;10.30;;
14143;SDS011;7152;48.348;10.980;2022-10-13T13:25:38;13.50;;;9.47;;
14143;SDS011;7152;48.348;10.980;2022-10-13T13:28:08;11.50;;;8.90;;
14143;SDS011;7152;48.348;10.980;2022-10-13T13:30:36;11.97;;;9.70;;
14143;SDS011;7152;48.348;10.980;2022-10-13T13:33:02;11.67;;;9.33;;
14143;SDS011;7152;48.348;10.980;2022-10-13T13:35:28;15.30;;;9.70;;
14143;SDS011;7152;48.348;10.980;2022-10-13T13:37:53;15.87;;;9.50;;
14143;SDS011;7152;48.348;10.980;2022-10-13T13:40:22;10.73;;;8.63;;
14143;SDS011;7152;48.348;10.980;2022-10-13T13:42:50;10.73;;;8.47;;
14143;SDS011;7152;48.348;10.980;2022-10-13T13:45:17;13.93;;;9.00;;
14143;SDS011;7152;48.348;10.980;2022-10-13T13:47:45;12.90;;;9.80;;
14143;SDS011;7152;48.348;10.980;2022-10-13T13:52:53;11.53;;;9.40;;
14143;SDS011;7152;48.348;10.980;2022-10-13T13:55:18;11.53;;;9.47;;
14143;SDS011;7152;48.348;10.980;2022-10-13T13:57:44;12.63;;;9.30;;
14143;SDS011;7152;48.348;10.980;2022-10-13T14:00:11;12.40;;;9.07;;
14143;SDS011;7152;48.348;10.980;2022-10-13T14:02:38;12.80;;;8.93;;
14143;SDS011;7152;48.348;10.980;2022-10-13T14:05:04;14.03;;;9.33;;
14143;SDS011;7152;48.348;10.980;2022-10-13T14:07:30;12.10;;;9.60;;
14143;SDS011;7152;48.348;10.980;2022-10-13T14:09:55;9.40;;;8.43;;
14143;SDS011;7152;48.348;10.980;2022-10-13T14:12:21;12.80;;;9.77;;
14143;SDS011;7152;48.348;10.980;2022-10-13T14:14:47;15.00;;;9.20;;
14143;SDS011;7152;48.348;10.980;2022-10-13T14:17:12;12.77;;;9.40;;
14143;SDS011;7152;48.348;10.980;2022-10-13T14:19:38;10.63;;;9.07;;
14143;SDS011;7152;48.348;10.980;2022-10-13T14:22:06;12.97;;;9.30;;
14143;SDS011;7152;48.348;10.980;2022-10-13T14:24:32;13.93;;;9.37;;
14143;SDS011;7152;48.348;10.980;2022-10-13T14:26:57;13.30;;;9.03;;
14143;SDS011;7152;48.348;10.980;2022-10-13T14:29:23;10.37;;;8.03;;
14143;SDS011;7152;48.348;10.980;2022-10-13T14:31:49;9.13;;;7.67;;
14143;SDS011;7152;48.348;10.980;2022-10-13T14:34:15;12.33;;;8.30;;
14143;SDS011;7152;48.348;10.980;2022-10-13T14:36:41;12.77;;;8.97;;
14143;SDS011;7152;48.348;10.980;2022-10-13T14:39:06;12.67;;;9.17;;
14143;SDS011;7152;48.348;10.980;2022-10-13T14:41:32;13.30;;;9.43;;
14143;SDS011;7152;48.348;10.980;2022-10-13T14:43:58;12.87;;;10.23;;
14143;SDS011;7152;48.348;10.980;2022-10-13T14:46:23;15.27;;;9.63;;
14143;SDS011;7152;48.348;10.980;2022-10-13T14:48:50;11.53;;;8.97;;
14143;SDS011;7152;48.348;10.980;2022-10-13T14:51:15;11.33;;;9.57;;
14143;SDS011;7152;48.348;10.980;2022-10-13T14:53:42;11.03;;;8.83;;
14143;SDS011;7152;48.348;10.980;2022-10-13T14:56:16;11.47;;;9.03;;
14143;SDS011;7152;48.348;10.980;2022-10-13T14:58:43;13.20;;;9.47;;
14143;SDS011;7152;48.348;10.980;2022-10-13T15:01:09;11.40;;;9.53;;
14143;SDS011;7152;48.348;10.980;2022-10-13T15:03:35;10.10;;;8.97;;
14143;SDS011;7152;48.348;10.980;2022-10-13T15:06:00;13.27;;;9.13;;
14143;SDS011;7152;48.348;10.980;2022-10-13T15:08:26;13.83;;;8.97;;
14143;SDS011;7152;48.348;10.980;2022-10-13T15:10:58;13.00;;;9.17;;
14143;SDS011;7152;48.348;10.980;2022-10-13T15:13:25;11.20;;;8.93;;
14143;SDS011;7152;48.348;10.980;2022-10-13T15:15:51;11.23;;;8.63;;
14143;SDS011;7152;48.348;10.980;2022-10-13T15:18:16;16.27;;;10.20;;
14143;SDS011;7152;48.348;10.980;2022-10-13T15:20:45;13.10;;;9.17;;
14143;SDS011;7152;48.348;10.980;2022-10-13T15:23:12;11.33;;;8.43;;
14143;SDS011;7152;48.348;10.980;2022-10-13T15:25:39;13.43;;;8.90;;
14143;SDS011;7152;48.348;10.980;2022-10-13T15:28:10;10.17;;;7.90;;
14143;SDS011;7152;48.348;10.980;2022-10-13T15:30:36;10.60;;;7.93;;
14143;SDS011;7152;48.348;10.980;2022-10-13T15:33:01;11.77;;;8.33;;
14143;SDS011;7152;48.348;10.980;2022-10-13T15:35:30;14.87;;;9.37;;
14143;SDS011;7152;48.348;10.980;2022-10-13T15:37:56;11.30;;;8.43;;
14143;SDS011;7152;48.348;10.980;2022-10-13T15:40:22;12.70;;;8.93;;
14143;SDS011;7152;48.348;10.980;2022-10-13T15:42:48;11.77;;;8.93;;
14143;SDS011;7152;48.348;10.980;2022-10-13T15:45:14;11.10;;;9.10;;
14143;SDS011;7152;48.348;10.980;2022-10-13T15:47:39;12.17;;;8.10;;
14143;SDS011;7152;48.348;10.980;2022-10-13T15:50:05;10.53;;;8.90;;
14143;SDS011;7152;48.348;10.980;2022-10-13T15:52:36;14.00;;;9.40;;
14143;SDS011;7152;48.348;10.980;2022-10-13T15:55:03;13.43;;;9.53;;
14143;SDS011;7152;48.348;10.980;2022-10-13T15:57:29;13.80;;;9.00;;
14143;SDS011;7152;48.348;10.980;2022-10-13T15:59:55;13.77;;;9.67;;
14143;SDS011;7152;48.348;10.980;2022-10-13T16:02:21;14.73;;;10.07;;
14143;SDS011;7152;48.348;10.980;2022-10-13T16:04:48;13.40;;;10.33;;
14143;SDS011;7152;48.348;10.980;2022-10-13T16:07:14;13.53;;;9.80;;
14143;SDS011;7152;48.348;10.980;2022-10-13T16:09:39;18.83;;;12.90;;
14143;SDS011;7152;48.348;10.980;2022-10-13T16:12:05;15.47;;;13.23;;
14143;SDS011;7152;48.348;10.980;2022-10-13T16:14:31;16.87;;;11.57;;
14143;SDS011;7152;48.348;10.980;2022-10-13T16:16:56;14.47;;;10.93;;
14143;SDS011;7152;48.348;10.980;2022-10-13T16:19:22;15.13;;;11.50;;
14143;SDS011;7152;48.348;10.980;2022-10-13T16:21:47;15.53;;;10.90;;
14143;SDS011;7152;48.348;10.980;2022-10-13T16:24:13;15.70;;;11.37;;